createdAt,value
2023-02-11T00:01:53.604Z,-7.99
2023-02-11T00:04:21.768Z,-7.94
2023-02-11T00:06:49.893Z,-7.91
2023-02-11T00:09:17.945Z,-7.88
2023-02-11T00:11:45.811Z,-7.88
2023-02-11T00:14:13.659Z,-7.89
2023-02-11T00:16:41.606Z,-7.88
2023-02-11T00:19:09.851Z,-7.87
2023-02-11T00:21:37.834Z,-7.85
2023-02-11T00:24:06.135Z,-7.81
2023-02-11T00:26:35.602Z,-7.79
2023-02-11T00:29:04.157Z,-7.81
2023-02-11T00:31:32.922Z,-7.83
2023-02-11T00:34:01.202Z,-7.83
2023-02-11T00:36:29.947Z,-7.82
2023-02-11T00:38:58.408Z,-7.82
2023-02-11T00:41:26.457Z,-7.84
2023-02-11T00:43:54.527Z,-7.90
2023-02-11T00:46:22.879Z,-7.89
2023-02-11T00:48:57.809Z,-7.89
2023-02-11T00:51:26.199Z,-7.91
2023-02-11T00:53:54.834Z,-7.89
2023-02-11T00:56:24.554Z,-7.86
2023-02-11T00:58:53.557Z,-7.82
2023-02-11T01:01:21.603Z,-7.79
2023-02-11T01:03:49.820Z,-7.77
2023-02-11T01:06:18.023Z,-7.82
2023-02-11T01:08:45.936Z,-7.88
2023-02-11T01:11:15.282Z,-7.92
2023-02-11T01:13:46.965Z,-7.99
2023-02-11T01:16:15.078Z,-7.96
2023-02-11T01:18:44.434Z,-7.91
2023-02-11T01:21:12.535Z,-7.87
2023-02-11T01:23:40.456Z,-7.87
2023-02-11T01:26:08.563Z,-7.87
2023-02-11T01:28:36.952Z,-7.86
2023-02-11T01:31:05.086Z,-7.89
2023-02-11T01:33:33.904Z,-7.92
2023-02-11T01:36:03.342Z,-8.01
2023-02-11T01:38:31.941Z,-8.03
2023-02-11T01:41:01.804Z,-8.07
2023-02-11T01:43:32.915Z,-8.13
2023-02-11T01:46:10.231Z,-8.20
2023-02-11T01:48:41.075Z,-8.23
2023-02-11T01:51:24.085Z,-8.29
2023-02-11T01:54:11.872Z,-8.31
2023-02-11T01:57:01.405Z,-8.29
2023-02-11T01:59:32.288Z,-8.24
2023-02-11T02:02:03.808Z,-8.19
2023-02-11T02:04:34.753Z,-8.14
2023-02-11T02:07:09.085Z,-8.09
2023-02-11T02:09:39.718Z,-8.10
2023-02-11T02:12:07.751Z,-8.11
2023-02-11T02:14:40.493Z,-8.10
2023-02-11T02:17:16.369Z,-8.07
2023-02-11T02:20:03.152Z,-8.04
2023-02-11T02:22:34.110Z,-8.02
2023-02-11T02:25:20.965Z,-8.02
2023-02-11T02:27:51.154Z,-8.08
2023-02-11T02:30:34.523Z,-8.09
2023-02-11T02:33:23.101Z,-8.13
2023-02-11T02:36:00.148Z,-8.16
2023-02-11T02:38:37.957Z,-8.23
2023-02-11T02:41:11.157Z,-8.36
2023-02-11T02:43:44.255Z,-8.56
2023-02-11T02:46:13.924Z,-8.64
2023-02-11T02:48:42.161Z,-8.69
2023-02-11T02:51:19.249Z,-8.77
2023-02-11T02:53:58.438Z,-8.74
2023-02-11T02:56:34.460Z,-8.76
2023-02-11T02:59:05.124Z,-8.83
2023-02-11T03:01:33.384Z,-8.94
2023-02-11T03:04:06.090Z,-9.04
2023-02-11T03:06:39.378Z,-9.05
2023-02-11T03:09:11.516Z,-9.06
2023-02-11T03:11:40.013Z,-9.10
2023-02-11T03:14:10.403Z,-9.08
2023-02-11T03:16:39.445Z,-9.06
2023-02-11T03:19:13.491Z,-9.05
2023-02-11T03:21:42.906Z,-8.94
2023-02-11T03:24:14.658Z,-8.84
2023-02-11T03:26:53.182Z,-8.76
2023-02-11T03:29:36.328Z,-8.74
2023-02-11T03:32:04.332Z,-8.68
2023-02-11T03:34:42.443Z,-8.64
2023-02-11T03:37:14.793Z,-8.62
2023-02-11T03:39:54.789Z,-8.63
2023-02-11T03:42:26.552Z,-8.65
2023-02-11T03:44:58.690Z,-8.84
2023-02-11T03:47:28.092Z,-8.85
2023-02-11T03:49:57.831Z,-8.81
2023-02-11T03:52:26.387Z,-8.83
2023-02-11T03:54:57.356Z,-8.84
2023-02-11T03:57:25.270Z,-8.82
2023-02-11T03:59:57.651Z,-8.80
2023-02-11T04:02:27.828Z,-8.84
2023-02-11T04:04:55.923Z,-8.81
2023-02-11T04:07:24.137Z,-8.86
2023-02-11T04:09:52.063Z,-8.88
2023-02-11T04:12:19.978Z,-8.83
2023-02-11T04:14:48.040Z,-8.89
2023-02-11T04:17:16.213Z,-8.83
2023-02-11T04:19:44.598Z,-8.82
2023-02-11T04:22:12.527Z,-8.80
2023-02-11T04:24:40.353Z,-8.83
2023-02-11T04:27:08.322Z,-8.89
2023-02-11T04:29:36.325Z,-9.02
2023-02-11T04:32:04.649Z,-9.06
2023-02-11T04:34:33.175Z,-9.06
2023-02-11T04:37:01.037Z,-9.05
2023-02-11T04:39:28.959Z,-9.04
2023-02-11T04:41:57.102Z,-9.01
2023-02-11T04:44:25.078Z,-8.97
2023-02-11T04:46:53.291Z,-8.98
2023-02-11T04:49:21.824Z,-8.91
2023-02-11T04:51:49.838Z,-8.86
2023-02-11T04:54:18.210Z,-8.95
2023-02-11T04:56:46.112Z,-8.96
2023-02-11T04:59:14.264Z,-9.00
2023-02-11T05:01:42.261Z,-9.03
2023-02-11T05:04:10.727Z,-9.05
2023-02-11T05:06:39.632Z,-9.08
2023-02-11T05:09:07.705Z,-9.06
2023-02-11T05:11:36.836Z,-9.05
2023-02-11T05:14:05.192Z,-9.08
2023-02-11T05:16:33.340Z,-9.12
2023-02-11T05:19:01.458Z,-9.15
2023-02-11T05:21:29.557Z,-9.14
2023-02-11T05:23:57.485Z,-9.17
2023-02-11T05:26:25.733Z,-9.08
2023-02-11T05:28:53.669Z,-9.04
2023-02-11T05:31:21.530Z,-9.05
2023-02-11T05:33:49.483Z,-9.07
2023-02-11T05:36:17.490Z,-9.13
2023-02-11T05:38:45.441Z,-9.15
2023-02-11T05:41:13.752Z,-9.23
2023-02-11T05:43:41.931Z,-9.25
2023-02-11T05:46:09.925Z,-9.16
2023-02-11T05:48:37.986Z,-9.19
2023-02-11T05:51:06.059Z,-9.15
2023-02-11T05:53:34.248Z,-9.08
2023-02-11T05:56:02.522Z,-8.99
2023-02-11T05:58:30.596Z,-8.87
2023-02-11T06:00:58.683Z,-8.79
2023-02-11T06:03:26.594Z,-8.79
2023-02-11T06:05:55.032Z,-8.89
2023-02-11T06:08:22.914Z,-8.86
2023-02-11T06:10:51.088Z,-8.81
2023-02-11T06:13:19.906Z,-8.78
2023-02-11T06:15:56.003Z,-8.69
2023-02-11T06:18:24.418Z,-8.74
2023-02-11T06:20:52.726Z,-8.75
2023-02-11T06:23:20.654Z,-8.71
2023-02-11T06:25:48.869Z,-8.66
2023-02-11T06:28:17.416Z,-8.66
2023-02-11T06:30:45.419Z,-8.60
2023-02-11T06:33:13.603Z,-8.55
2023-02-11T06:35:41.528Z,-8.35
2023-02-11T06:38:09.436Z,-8.12
2023-02-11T06:40:37.442Z,-7.99
2023-02-11T06:43:05.489Z,-7.96
2023-02-11T06:45:33.417Z,-7.83
2023-02-11T06:48:01.483Z,-7.77
2023-02-11T06:50:29.650Z,-7.65
2023-02-11T06:52:59.143Z,-7.60
2023-02-11T06:55:27.152Z,-7.52
2023-02-11T06:57:55.044Z,-7.52
2023-02-11T07:00:23.106Z,-7.47
2023-02-11T07:02:51.147Z,-7.39
2023-02-11T07:05:19.442Z,-7.23
2023-02-11T07:07:47.412Z,-7.12
2023-02-11T07:10:15.484Z,-7.00
2023-02-11T07:12:43.363Z,-6.79
2023-02-11T07:15:11.336Z,-6.59
2023-02-11T07:17:39.389Z,-6.39
2023-02-11T07:20:07.386Z,-6.15
2023-02-11T07:22:35.471Z,-5.92
2023-02-11T07:25:04.604Z,-5.83
2023-02-11T07:27:32.746Z,-5.70
2023-02-11T07:30:00.712Z,-5.67
2023-02-11T07:32:28.896Z,-5.58
2023-02-11T07:34:56.841Z,-5.47
2023-02-11T07:37:24.942Z,-5.32
2023-02-11T07:39:52.831Z,-5.21
2023-02-11T07:42:20.889Z,-5.04
2023-02-11T07:44:50.513Z,-4.84
2023-02-11T07:47:18.618Z,-4.72
2023-02-11T07:49:46.623Z,-4.87
2023-02-11T07:52:15.453Z,-4.77
2023-02-11T07:54:45.566Z,-4.67
2023-02-11T07:57:13.536Z,-4.66
2023-02-11T07:59:41.734Z,-4.80
2023-02-11T08:02:10.561Z,-4.59
2023-02-11T08:04:38.679Z,-4.41
2023-02-11T08:07:07.060Z,-4.32
2023-02-11T08:09:35.047Z,-4.09
2023-02-11T08:12:03.111Z,-3.86
2023-02-11T08:14:32.868Z,-3.61
2023-02-11T08:17:01.021Z,-3.38
2023-02-11T08:19:29.258Z,-3.13
2023-02-11T08:21:57.656Z,-2.98
2023-02-11T08:24:25.936Z,-2.78
2023-02-11T08:26:53.847Z,-2.54
2023-02-11T08:29:21.835Z,-2.35
2023-02-11T08:31:50.022Z,-2.10
2023-02-11T08:34:22.167Z,-1.83
2023-02-11T08:36:50.366Z,-1.69
2023-02-11T08:39:20.749Z,-1.58
2023-02-11T08:41:50.999Z,-1.31
2023-02-11T08:44:20.474Z,-1.16
2023-02-11T08:46:49.149Z,-1.10
2023-02-11T08:49:17.441Z,-0.91
2023-02-11T08:51:46.114Z,-0.72
2023-02-11T08:54:14.503Z,-0.55
2023-02-11T08:56:42.708Z,-0.48
2023-02-11T08:59:13.115Z,-0.50
2023-02-11T09:01:41.174Z,-0.51
2023-02-11T09:04:10.175Z,-0.52
2023-02-11T09:06:38.266Z,-0.52
2023-02-11T09:09:06.728Z,-0.60
2023-02-11T09:11:35.771Z,-0.58
2023-02-11T09:14:04.455Z,-0.57
2023-02-11T09:16:34.973Z,-0.57
2023-02-11T09:19:04.574Z,-0.66
2023-02-11T09:21:32.863Z,-0.67
2023-02-11T09:24:01.237Z,-0.70
2023-02-11T09:26:30.500Z,-0.60
2023-02-11T09:28:59.024Z,-0.45
2023-02-11T09:31:28.395Z,-0.39
2023-02-11T09:34:01.260Z,-0.41
2023-02-11T09:36:31.237Z,-0.58
2023-02-11T09:39:00.182Z,-0.49
2023-02-11T09:41:47.155Z,-0.48
2023-02-11T09:44:25.888Z,-0.47
2023-02-11T09:47:14.218Z,-0.39
2023-02-11T09:49:42.293Z,-0.31
2023-02-11T09:52:13.350Z,-0.35
2023-02-11T09:54:54.911Z,-0.31
2023-02-11T09:57:28.887Z,-0.20
2023-02-11T09:59:57.997Z,-0.14
2023-02-11T10:02:38.214Z,-0.09
2023-02-11T10:05:14.978Z,0.04
2023-02-11T10:07:45.942Z,0.25
2023-02-11T10:10:17.174Z,0.43
2023-02-11T10:12:51.373Z,0.45
2023-02-11T10:15:32.405Z,0.68
2023-02-11T10:18:00.552Z,1.01
2023-02-11T10:20:31.282Z,1.23
2023-02-11T10:23:01.427Z,1.69
2023-02-11T10:25:45.520Z,1.97
2023-02-11T10:28:16.304Z,2.05
2023-02-11T10:30:51.023Z,2.08
2023-02-11T10:33:30.787Z,2.39
2023-02-11T10:35:59.371Z,2.28
2023-02-11T10:38:27.841Z,2.07
2023-02-11T10:40:55.742Z,2.11
2023-02-11T10:43:26.573Z,2.29
2023-02-11T10:45:56.178Z,1.91
2023-02-11T10:48:39.833Z,2.05
2023-02-11T10:51:12.785Z,2.15
2023-02-11T10:53:42.370Z,2.24
2023-02-11T10:56:26.167Z,2.42
2023-02-11T10:58:56.113Z,2.20
2023-02-11T11:01:25.152Z,1.92
2023-02-11T11:03:53.258Z,1.74
2023-02-11T11:06:31.724Z,1.69
2023-02-11T11:08:59.687Z,1.85
2023-02-11T11:11:27.947Z,1.70
2023-02-11T11:13:59.194Z,1.75
2023-02-11T11:16:28.564Z,1.95
2023-02-11T11:19:09.184Z,1.83
2023-02-11T11:21:37.075Z,1.91
2023-02-11T11:24:05.440Z,1.93
2023-02-11T11:26:44.758Z,1.85
2023-02-11T11:29:20.547Z,1.82
2023-02-11T11:31:51.288Z,1.89
2023-02-11T11:34:22.905Z,1.72
2023-02-11T11:36:51.184Z,1.61
2023-02-11T11:39:25.023Z,1.70
2023-02-11T11:41:58.105Z,1.75
2023-02-11T11:44:33.571Z,1.93
2023-02-11T11:47:07.772Z,2.09
2023-02-11T11:49:39.630Z,2.23
2023-02-11T11:52:19.985Z,2.21
2023-02-11T11:54:53.621Z,2.40
2023-02-11T11:57:25.591Z,2.53
2023-02-11T11:59:53.637Z,2.50
2023-02-11T12:02:27.508Z,2.56
2023-02-11T12:05:08.502Z,2.61
2023-02-11T12:07:52.068Z,2.58
2023-02-11T12:10:35.309Z,2.70
2023-02-11T12:13:06.215Z,2.86
2023-02-11T12:15:57.112Z,2.93
2023-02-11T12:18:38.274Z,3.25
2023-02-11T12:21:09.208Z,3.03
2023-02-11T12:23:44.421Z,2.92
2023-02-11T12:26:19.905Z,3.26
2023-02-11T12:28:53.883Z,3.33
2023-02-11T12:31:27.934Z,3.40
2023-02-11T12:33:55.990Z,3.44
2023-02-11T12:36:43.321Z,3.50
2023-02-11T12:39:23.537Z,3.34
2023-02-11T12:42:29.808Z,3.20
2023-02-11T12:45:14.053Z,3.05
2023-02-11T12:47:49.772Z,2.91
2023-02-11T12:50:17.659Z,2.78
2023-02-11T12:53:04.180Z,2.61
2023-02-11T12:55:38.139Z,2.42
2023-02-11T12:58:12.735Z,2.28
2023-02-11T13:00:40.624Z,2.19
2023-02-11T13:03:15.478Z,2.07
2023-02-11T13:05:46.966Z,1.92
2023-02-11T13:08:33.663Z,1.94
2023-02-11T13:11:03.972Z,1.96
2023-02-11T13:13:35.810Z,1.96
2023-02-11T13:16:08.222Z,1.89
2023-02-11T13:18:44.326Z,1.97
2023-02-11T13:21:15.722Z,2.04
2023-02-11T13:23:49.494Z,2.12
2023-02-11T13:26:17.692Z,2.17
2023-02-11T13:28:49.742Z,2.22
2023-02-11T13:31:20.445Z,2.24
2023-02-11T13:33:50.019Z,2.23
2023-02-11T13:36:22.275Z,2.24
2023-02-11T13:38:58.539Z,2.20
2023-02-11T13:41:31.000Z,2.17
2023-02-11T13:43:58.991Z,2.09
2023-02-11T13:46:29.423Z,2.04
2023-02-11T13:48:58.131Z,1.95
2023-02-11T13:51:40.075Z,1.84
2023-02-11T13:54:09.834Z,1.73
2023-02-11T13:56:44.174Z,1.61
2023-02-11T13:59:33.580Z,1.51
2023-02-11T14:02:35.797Z,1.45
2023-02-11T14:05:22.719Z,1.40
2023-02-11T14:08:28.350Z,1.41
2023-02-11T14:10:57.796Z,1.41
2023-02-11T14:13:30.148Z,1.44
2023-02-11T14:16:04.435Z,1.43
2023-02-11T14:18:38.672Z,1.44
2023-02-11T14:21:18.131Z,1.43
2023-02-11T14:23:46.989Z,1.40
2023-02-11T14:26:21.161Z,1.39
2023-02-11T14:28:52.039Z,1.37
2023-02-11T14:31:24.012Z,1.32
2023-02-11T14:33:52.485Z,1.27
2023-02-11T14:36:43.774Z,1.23
2023-02-11T14:39:18.423Z,1.20
2023-02-11T14:41:47.628Z,1.12
2023-02-11T14:44:34.470Z,1.08
2023-02-11T14:47:02.738Z,1.03
2023-02-11T14:49:35.441Z,0.97
2023-02-11T14:52:17.227Z,0.92
2023-02-11T14:54:45.965Z,0.86
2023-02-11T14:57:18.555Z,0.79
2023-02-11T14:59:59.338Z,0.72
2023-02-11T15:02:33.264Z,0.67
2023-02-11T15:05:16.263Z,0.63
2023-02-11T15:07:46.058Z,0.58
2023-02-11T15:10:18.641Z,0.55
2023-02-11T15:12:50.080Z,0.49
2023-02-11T15:15:18.079Z,0.44
2023-02-11T15:17:46.178Z,0.39
2023-02-11T15:20:26.110Z,0.32
2023-02-11T15:22:59.459Z,0.18
2023-02-11T15:25:28.413Z,0.15
2023-02-11T15:27:58.018Z,0.08
2023-02-11T15:30:28.160Z,0.01
2023-02-11T15:33:01.043Z,-0.08
2023-02-11T15:35:37.924Z,-0.16
2023-02-11T15:38:05.892Z,-0.24
2023-02-11T15:40:35.669Z,-0.31
2023-02-11T15:43:06.106Z,-0.36
2023-02-11T15:45:37.097Z,-0.43
2023-02-11T15:48:16.001Z,-0.51
2023-02-11T15:50:49.371Z,-0.62
2023-02-11T15:53:23.559Z,-0.69
2023-02-11T15:55:52.965Z,-0.73
2023-02-11T15:58:22.067Z,-0.77
2023-02-11T16:00:52.404Z,-0.82
2023-02-11T16:03:25.727Z,-0.88
2023-02-11T16:05:55.707Z,-0.89
2023-02-11T16:08:24.586Z,-0.91
2023-02-11T16:10:58.822Z,-0.97
2023-02-11T16:13:28.516Z,-1.00
2023-02-11T16:16:02.682Z,-1.12
2023-02-11T16:18:49.377Z,-1.16
2023-02-11T16:21:29.674Z,-1.23
2023-02-11T16:23:58.313Z,-1.29
2023-02-11T16:26:32.135Z,-1.33
2023-02-11T16:29:16.718Z,-1.36
2023-02-11T16:31:47.046Z,-1.50
2023-02-11T16:34:19.936Z,-1.54
2023-02-11T16:36:48.722Z,-1.60
2023-02-11T16:39:17.413Z,-1.64
2023-02-11T16:41:45.367Z,-1.71
2023-02-11T16:44:13.566Z,-1.79
2023-02-11T16:46:41.856Z,-1.80
2023-02-11T16:49:18.433Z,-1.85
2023-02-11T16:51:47.766Z,-1.90
2023-02-11T16:54:16.427Z,-1.92
2023-02-11T16:56:44.710Z,-1.98
2023-02-11T16:59:12.931Z,-2.00
2023-02-11T17:01:42.401Z,-2.01
2023-02-11T17:04:25.194Z,-2.05
2023-02-11T17:06:53.219Z,-2.08
2023-02-11T17:09:27.111Z,-2.12
2023-02-11T17:11:56.279Z,-2.23
2023-02-11T17:14:24.501Z,-2.25
2023-02-11T17:16:52.578Z,-2.30
2023-02-11T17:19:21.840Z,-2.32
2023-02-11T17:21:51.301Z,-2.36
2023-02-11T17:24:19.793Z,-2.40
2023-02-11T17:26:48.779Z,-2.41
2023-02-11T17:29:18.543Z,-2.45
2023-02-11T17:31:46.949Z,-2.42
2023-02-11T17:34:15.095Z,-2.41
2023-02-11T17:36:43.087Z,-2.38
2023-02-11T17:39:11.527Z,-2.35
2023-02-11T17:41:40.037Z,-2.32
2023-02-11T17:44:08.703Z,-2.30
2023-02-11T17:46:36.635Z,-2.27
2023-02-11T17:49:04.652Z,-2.22
2023-02-11T17:51:34.152Z,-2.18
2023-02-11T17:54:03.227Z,-2.14
2023-02-11T17:56:35.345Z,-2.10
2023-02-11T17:59:04.034Z,-2.08
2023-02-11T18:01:33.373Z,-2.04
2023-02-11T18:04:01.898Z,-2.03
2023-02-11T18:06:29.997Z,-2.01
2023-02-11T18:08:59.836Z,-2.08
2023-02-11T18:11:30.494Z,-2.07
2023-02-11T18:13:59.349Z,-2.17
2023-02-11T18:16:29.414Z,-2.11
2023-02-11T18:18:58.432Z,-2.03
2023-02-11T18:21:26.562Z,-1.95
2023-02-11T18:23:54.508Z,-1.90
2023-02-11T18:26:26.060Z,-1.89
2023-02-11T18:28:55.395Z,-1.90
2023-02-11T18:31:24.299Z,-1.85
2023-02-11T18:33:53.409Z,-1.80
2023-02-11T18:36:21.879Z,-1.85
2023-02-11T18:38:51.838Z,-1.87
2023-02-11T18:41:20.536Z,-1.86
2023-02-11T18:43:48.589Z,-1.85
2023-02-11T18:46:16.766Z,-1.79
2023-02-11T18:48:47.735Z,-1.79
2023-02-11T18:51:18.490Z,-1.80
2023-02-11T18:53:46.984Z,-1.80
2023-02-11T18:56:16.772Z,-1.99
2023-02-11T18:58:44.759Z,-1.95
2023-02-11T19:01:17.250Z,-1.86
2023-02-11T19:03:45.718Z,-1.93
2023-02-11T19:06:18.295Z,-1.91
2023-02-11T19:08:46.888Z,-2.03
2023-02-11T19:11:17.380Z,-2.05
2023-02-11T19:13:47.808Z,-2.15
2023-02-11T19:16:20.071Z,-2.12
2023-02-11T19:18:48.011Z,-2.10
2023-02-11T19:21:15.980Z,-2.03
2023-02-11T19:23:44.019Z,-2.03
2023-02-11T19:26:11.913Z,-1.97
2023-02-11T19:28:39.827Z,-1.95
2023-02-11T19:31:09.099Z,-1.92
2023-02-11T19:33:37.114Z,-1.85
2023-02-11T19:36:06.859Z,-1.82
2023-02-11T19:38:35.078Z,-1.81
2023-02-11T19:41:03.117Z,-1.82
2023-02-11T19:43:31.145Z,-1.77
2023-02-11T19:46:01.214Z,-1.73
2023-02-11T19:48:29.644Z,-1.70
2023-02-11T19:50:57.750Z,-1.72
2023-02-11T19:53:25.797Z,-1.73
2023-02-11T19:55:53.975Z,-1.69
2023-02-11T19:58:22.267Z,-1.65
2023-02-11T20:00:50.549Z,-1.61
2023-02-11T20:03:18.844Z,-1.59
2023-02-11T20:05:48.104Z,-1.58
2023-02-11T20:08:17.247Z,-1.57
2023-02-11T20:10:45.125Z,-1.61
2023-02-11T20:13:13.580Z,-1.59
2023-02-11T20:15:41.504Z,-1.56
2023-02-11T20:18:09.858Z,-1.51
2023-02-11T20:20:38.547Z,-1.45
2023-02-11T20:23:06.406Z,-1.39
2023-02-11T20:25:34.283Z,-1.30
2023-02-11T20:28:02.177Z,-1.24
2023-02-11T20:30:30.460Z,-1.20
2023-02-11T20:32:58.738Z,-1.21
2023-02-11T20:35:26.715Z,-1.21
2023-02-11T20:37:54.696Z,-1.24
2023-02-11T20:40:22.568Z,-1.24
2023-02-11T20:42:50.546Z,-1.29
2023-02-11T20:45:18.514Z,-1.26
2023-02-11T20:47:46.497Z,-1.24
2023-02-11T20:50:14.341Z,-1.26
2023-02-11T20:52:42.238Z,-1.23
2023-02-11T20:55:10.330Z,-1.19
2023-02-11T20:57:38.709Z,-1.17
2023-02-11T21:00:07.005Z,-1.14
2023-02-11T21:02:34.930Z,-1.05
2023-02-11T21:05:03.055Z,-1.02
2023-02-11T21:07:31.635Z,-0.98
2023-02-11T21:09:59.616Z,-0.92
2023-02-11T21:12:27.467Z,-0.86
2023-02-11T21:14:57.308Z,-0.82
2023-02-11T21:17:28.227Z,-0.77
2023-02-11T21:19:56.234Z,-0.77
2023-02-11T21:22:24.419Z,-0.77
2023-02-11T21:24:52.366Z,-0.74
2023-02-11T21:27:20.268Z,-0.73
2023-02-11T21:29:54.083Z,-0.73
2023-02-11T21:32:22.776Z,-0.69
2023-02-11T21:34:50.649Z,-0.67
2023-02-11T21:37:18.697Z,-0.66
2023-02-11T21:39:46.814Z,-0.65
2023-02-11T21:42:14.794Z,-0.61
2023-02-11T21:44:42.768Z,-0.55
2023-02-11T21:47:10.738Z,-0.46
2023-02-11T21:49:38.743Z,-0.36
2023-02-11T21:52:06.908Z,-0.28
2023-02-11T21:54:34.884Z,-0.16
2023-02-11T21:57:03.303Z,-0.06
2023-02-11T21:59:32.060Z,0.02
2023-02-11T22:02:00.526Z,0.09
2023-02-11T22:04:28.639Z,0.14
2023-02-11T22:06:59.642Z,0.17
2023-02-11T22:09:27.657Z,0.17
2023-02-11T22:11:55.816Z,0.17
2023-02-11T22:14:23.812Z,0.22
2023-02-11T22:16:51.757Z,0.27
2023-02-11T22:19:19.767Z,0.32
2023-02-11T22:21:47.747Z,0.36
2023-02-11T22:24:15.985Z,0.35
2023-02-11T22:26:44.312Z,0.36
2023-02-11T22:29:12.590Z,0.34
2023-02-11T22:31:40.722Z,0.32
2023-02-11T22:34:08.651Z,0.34
2023-02-11T22:36:38.573Z,0.35
2023-02-11T22:39:08.312Z,0.36
2023-02-11T22:41:38.524Z,0.37
2023-02-11T22:44:06.493Z,0.38
2023-02-11T22:46:34.658Z,0.36
2023-02-11T22:49:02.964Z,0.41
2023-02-11T22:51:31.039Z,0.40
2023-02-11T22:54:03.007Z,0.35
2023-02-11T22:56:32.113Z,0.34
2023-02-11T22:59:00.929Z,0.32
2023-02-11T23:01:29.655Z,0.29
2023-02-11T23:03:59.591Z,0.18
2023-02-11T23:06:27.820Z,0.08
2023-02-11T23:08:55.881Z,0.00
2023-02-11T23:11:25.294Z,-0.08
2023-02-11T23:13:53.599Z,-0.17
2023-02-11T23:16:24.414Z,-0.26
2023-02-11T23:18:52.511Z,-0.32
2023-02-11T23:21:22.532Z,-0.37
2023-02-11T23:23:54.496Z,-0.39
2023-02-11T23:26:22.475Z,-0.41
2023-02-11T23:28:50.375Z,-0.43
2023-02-11T23:31:29.649Z,-0.46
2023-02-11T23:33:57.662Z,-0.47
2023-02-11T23:36:25.754Z,-0.49
2023-02-11T23:38:53.743Z,-0.50
2023-02-11T23:41:22.123Z,-0.54
2023-02-11T23:43:54.451Z,-0.52
2023-02-11T23:46:23.109Z,-0.50
2023-02-11T23:48:51.288Z,-0.48
2023-02-11T23:51:19.265Z,-0.47
2023-02-11T23:53:49.430Z,-0.46
2023-02-11T23:56:18.988Z,-0.42
2023-02-11T23:58:50.936Z,-0.47
